createdAt,value
2023-01-17T00:04:50.237Z,102394.41
2023-01-17T00:09:58.729Z,102399.38
2023-01-17T00:15:05.162Z,102392.94
2023-01-17T00:20:34.148Z,102393.94
2023-01-17T00:25:59.850Z,102406.81
2023-01-17T00:31:07.463Z,102407.72
2023-01-17T00:36:13.009Z,102410.78
2023-01-17T00:41:18.519Z,102416.38
2023-01-17T00:46:43.846Z,102416.53
2023-01-17T00:52:09.109Z,102419.16
2023-01-17T00:57:34.411Z,102421.47
2023-01-17T01:03:01.124Z,102417.97
2023-01-17T01:08:50.239Z,102419.19
2023-01-17T01:14:15.668Z,102400.50
2023-01-17T01:19:40.802Z,102390.72
2023-01-17T01:25:06.137Z,102388.75
2023-01-17T01:30:32.338Z,102394.81
2023-01-17T01:35:38.070Z,102393.47
2023-01-17T01:40:49.883Z,102407.09
2023-01-17T01:45:59.047Z,102409.28
2023-01-17T01:51:09.378Z,102421.63
2023-01-17T01:56:16.568Z,102419.28
2023-01-17T02:01:22.240Z,102420.47
2023-01-17T02:06:38.108Z,102416.03
2023-01-17T02:11:45.322Z,102421.44
2023-01-17T02:17:10.462Z,102421.91
2023-01-17T02:22:53.495Z,102431.16
2023-01-17T02:28:01.752Z,102436.50
2023-01-17T02:33:28.733Z,102415.84
2023-01-17T02:39:30.710Z,102439.44
2023-01-17T02:44:46.549Z,102427.97
2023-01-17T02:49:54.438Z,102444.59
2023-01-17T02:55:26.689Z,102451.53
2023-01-17T03:01:07.334Z,102449.28
2023-01-17T03:06:18.890Z,102458.78
2023-01-17T03:11:23.376Z,102465.31
2023-01-17T03:16:32.274Z,102460.66
2023-01-17T03:21:37.978Z,102443.22
2023-01-17T03:26:45.631Z,102403.66
2023-01-17T03:31:51.129Z,102481.03
2023-01-17T03:36:56.616Z,102483.13
2023-01-17T03:42:02.026Z,102469.56
2023-01-17T03:47:07.661Z,102475.72
2023-01-17T03:52:13.198Z,102472.34
2023-01-17T03:57:18.588Z,102427.31
2023-01-17T04:02:24.926Z,102472.09
2023-01-17T04:07:30.586Z,102485.53
2023-01-17T04:12:36.242Z,102470.34
2023-01-17T04:17:42.381Z,102507.22
2023-01-17T04:22:47.854Z,102489.75
2023-01-17T04:27:54.717Z,102446.50
2023-01-17T04:33:01.408Z,102525.72
2023-01-17T04:38:06.809Z,102502.56
2023-01-17T04:43:12.385Z,102521.56
2023-01-17T04:48:17.690Z,102526.06
2023-01-17T04:53:21.998Z,102518.53
2023-01-17T04:58:26.389Z,102525.19
2023-01-17T05:03:30.798Z,102547.97
2023-01-17T05:08:35.114Z,102554.78
2023-01-17T05:13:39.304Z,102552.81
2023-01-17T05:18:43.569Z,102570.53
2023-01-17T05:23:47.886Z,102579.16
2023-01-17T05:28:52.260Z,102575.91
2023-01-17T05:33:56.544Z,102577.63
2023-01-17T05:39:00.805Z,102556.56
2023-01-17T05:44:05.196Z,102608.75
2023-01-17T05:49:09.600Z,102605.31
2023-01-17T05:54:13.854Z,102593.94
2023-01-17T05:59:25.627Z,102607.97
2023-01-17T06:04:40.276Z,102608.25
2023-01-17T06:09:44.535Z,102600.94
2023-01-17T06:14:48.944Z,102587.28
2023-01-17T06:19:53.477Z,102570.31
2023-01-17T06:24:57.833Z,102592.97
2023-01-17T06:30:02.085Z,102597.72
2023-01-17T06:35:08.028Z,102594.97
2023-01-17T06:40:13.174Z,102606.34
2023-01-17T06:45:19.736Z,102610.13
2023-01-17T06:50:24.448Z,102616.88
2023-01-17T06:55:29.919Z,102609.28
2023-01-17T07:00:35.724Z,102604.78
2023-01-17T07:05:42.088Z,102619.31
2023-01-17T07:10:48.216Z,102617.97
2023-01-17T07:15:52.562Z,102621.16
2023-01-17T07:20:57.135Z,102619.81
2023-01-17T07:26:01.911Z,102621.31
2023-01-17T07:31:08.580Z,102614.09
2023-01-17T07:36:13.025Z,102606.09
2023-01-17T07:41:17.257Z,102602.44
2023-01-17T07:46:21.523Z,102594.06
2023-01-17T07:51:25.996Z,102592.31
2023-01-17T07:56:30.245Z,102584.78
2023-01-17T08:01:34.643Z,102596.00
2023-01-17T08:06:42.931Z,102564.09
2023-01-17T08:11:47.155Z,102596.16
2023-01-17T08:16:51.845Z,102559.78
2023-01-17T08:21:56.541Z,102583.31
2023-01-17T08:27:00.859Z,102586.47
2023-01-17T08:32:05.279Z,102520.94
2023-01-17T08:37:09.622Z,102565.13
2023-01-17T08:42:13.862Z,102571.47
2023-01-17T08:47:18.080Z,102571.84
2023-01-17T08:52:22.276Z,102574.53
2023-01-17T08:57:26.687Z,102572.97
2023-01-17T09:02:30.990Z,102575.25
2023-01-17T09:07:35.490Z,102564.38
2023-01-17T09:12:41.066Z,102560.28
2023-01-17T09:17:45.340Z,102533.13
2023-01-17T09:22:52.840Z,102553.03
2023-01-17T09:27:57.104Z,102555.13
2023-01-17T09:33:01.400Z,102529.78
2023-01-17T09:38:05.739Z,102551.88
2023-01-17T09:43:23.973Z,102527.81
2023-01-17T09:48:38.895Z,102538.56
2023-01-17T09:53:44.492Z,102538.38
2023-01-17T09:59:10.302Z,102527.06
2023-01-17T10:04:51.992Z,102526.22
2023-01-17T10:10:41.735Z,102524.59
2023-01-17T10:15:57.721Z,102492.66
2023-01-17T10:21:33.689Z,102519.34
2023-01-17T10:26:39.029Z,102516.69
2023-01-17T10:31:56.379Z,102480.94
2023-01-17T10:37:21.629Z,102496.22
2023-01-17T10:43:11.326Z,102515.91
2023-01-17T10:48:45.545Z,102509.34
2023-01-17T10:54:02.011Z,102518.78
2023-01-17T10:59:32.904Z,102519.13
2023-01-17T11:04:39.675Z,102521.84
2023-01-17T11:09:46.673Z,102505.47
2023-01-17T11:14:59.205Z,102521.13
2023-01-17T11:20:23.449Z,102532.31
2023-01-17T11:25:30.302Z,102527.41
2023-01-17T11:30:35.171Z,102521.22
2023-01-17T11:35:45.832Z,102496.91
2023-01-17T11:41:16.097Z,102519.03
2023-01-17T11:46:24.440Z,102533.81
2023-01-17T11:51:49.012Z,102539.78
2023-01-17T11:56:59.106Z,102526.06
2023-01-17T12:03:00.789Z,102523.22
2023-01-17T12:08:17.393Z,102487.63
2023-01-17T12:14:01.864Z,102515.03
2023-01-17T12:19:47.064Z,102519.19
2023-01-17T12:25:06.066Z,102518.97
2023-01-17T12:30:31.414Z,102525.28
2023-01-17T12:35:54.449Z,102509.19
2023-01-17T12:41:26.308Z,102530.53
2023-01-17T12:46:55.507Z,102537.78
2023-01-17T12:52:20.828Z,102544.19
2023-01-17T12:57:47.093Z,102548.88
2023-01-17T13:03:08.196Z,102556.66
2023-01-17T13:08:50.200Z,102558.19
2023-01-17T13:13:58.129Z,102557.25
2023-01-17T13:19:39.117Z,102552.31
2023-01-17T13:24:49.782Z,102558.06
2023-01-17T13:30:16.718Z,102539.34
2023-01-17T13:35:43.288Z,102557.50
2023-01-17T13:41:17.161Z,102557.81
2023-01-17T13:46:21.929Z,102573.03
2023-01-17T13:52:10.312Z,102566.34
2023-01-17T13:57:42.229Z,102565.63
2023-01-17T14:02:51.818Z,102565.03
2023-01-17T14:08:01.605Z,102563.25
2023-01-17T14:13:28.686Z,102559.41
2023-01-17T14:18:41.347Z,102573.47
2023-01-17T14:24:11.682Z,102576.28
2023-01-17T14:29:59.441Z,102565.56
2023-01-17T14:35:06.574Z,102567.50
2023-01-17T14:40:22.065Z,102573.94
2023-01-17T14:45:35.417Z,102567.50
2023-01-17T14:50:43.680Z,102582.56
2023-01-17T14:55:49.486Z,102585.91
2023-01-17T15:01:13.517Z,102592.34
2023-01-17T15:06:19.255Z,102596.38
2023-01-17T15:11:27.913Z,102586.66
2023-01-17T15:16:38.792Z,102589.56
2023-01-17T15:21:46.719Z,102574.00
2023-01-17T15:26:52.702Z,102598.88
2023-01-17T15:32:00.300Z,102601.09
2023-01-17T15:37:31.818Z,102603.34
2023-01-17T15:42:39.724Z,102589.41
2023-01-17T15:47:44.895Z,102602.06
2023-01-17T15:52:56.644Z,102605.81
2023-01-17T15:58:03.224Z,102604.16
2023-01-17T16:03:30.014Z,102619.09
2023-01-17T16:08:40.365Z,102618.91
2023-01-17T16:13:48.023Z,102626.25
2023-01-17T16:19:01.323Z,102634.41
2023-01-17T16:24:12.767Z,102615.34
2023-01-17T16:29:18.086Z,102638.59
2023-01-17T16:34:24.667Z,102631.63
2023-01-17T16:39:30.380Z,102633.81
2023-01-17T16:44:38.096Z,102631.72
2023-01-17T16:49:43.435Z,102587.63
2023-01-17T16:54:50.148Z,102643.72
2023-01-17T16:59:55.610Z,102640.41
2023-01-17T17:05:01.103Z,102639.94
2023-01-17T17:10:08.435Z,102640.50
2023-01-17T17:15:14.173Z,102644.09
2023-01-17T17:20:19.765Z,102644.59
2023-01-17T17:25:24.883Z,102646.25
2023-01-17T17:30:31.754Z,102645.63
2023-01-17T17:35:37.472Z,102638.84
2023-01-17T17:40:46.963Z,102665.28
2023-01-17T17:45:52.150Z,102649.28
2023-01-17T17:50:59.823Z,102652.25
2023-01-17T17:56:07.292Z,102659.06
2023-01-17T18:01:12.965Z,102652.38
2023-01-17T18:06:19.218Z,102653.53
2023-01-17T18:11:27.355Z,102639.41
2023-01-17T18:17:00.541Z,102646.69
2023-01-17T18:22:06.284Z,102651.59
2023-01-17T18:27:12.241Z,102629.97
2023-01-17T18:32:17.572Z,102600.78
2023-01-17T18:37:23.685Z,102653.47
2023-01-17T18:42:29.301Z,102660.41
2023-01-17T18:47:34.506Z,102655.91
2023-01-17T18:52:40.335Z,102658.75
2023-01-17T18:57:45.633Z,102655.88
2023-01-17T19:02:51.216Z,102660.19
2023-01-17T19:07:57.016Z,102654.22
2023-01-17T19:13:03.370Z,102654.28
2023-01-17T19:18:09.273Z,102637.78
2023-01-17T19:23:14.533Z,102649.56
2023-01-17T19:28:19.616Z,102655.25
2023-01-17T19:33:25.275Z,102658.41
2023-01-17T19:38:31.458Z,102669.03
2023-01-17T19:43:36.938Z,102659.47
2023-01-17T19:48:42.364Z,102656.75
2023-01-17T19:53:47.790Z,102649.72
2023-01-17T19:58:53.571Z,102627.72
2023-01-17T20:03:59.822Z,102655.94
2023-01-17T20:09:06.953Z,102659.31
2023-01-17T20:14:17.102Z,102668.16
2023-01-17T20:19:22.732Z,102656.78
2023-01-17T20:24:28.006Z,102665.38
2023-01-17T20:29:34.620Z,102679.75
2023-01-17T20:34:39.742Z,102681.09
2023-01-17T20:39:46.066Z,102670.72
2023-01-17T20:44:51.738Z,102690.78
2023-01-17T20:49:58.206Z,102694.47
2023-01-17T20:55:03.268Z,102691.66
2023-01-17T21:00:18.161Z,102699.56
2023-01-17T21:05:23.637Z,102683.69
2023-01-17T21:10:29.929Z,102673.03
2023-01-17T21:15:35.235Z,102674.09
2023-01-17T21:20:40.258Z,102670.38
2023-01-17T21:26:18.316Z,102671.00
2023-01-17T21:31:28.446Z,102657.69
2023-01-17T21:36:37.569Z,102598.13
2023-01-17T21:41:46.369Z,102664.25
2023-01-17T21:47:17.457Z,102659.56
2023-01-17T21:52:23.094Z,102664.59
2023-01-17T21:57:48.449Z,102656.19
2023-01-17T22:02:53.741Z,102639.13
2023-01-17T22:08:14.995Z,102623.06
2023-01-17T22:13:21.004Z,102670.44
2023-01-17T22:18:26.741Z,102681.59
2023-01-17T22:23:32.039Z,102689.88
2023-01-17T22:28:38.929Z,102694.75
2023-01-17T22:33:46.841Z,102699.34
2023-01-17T22:38:53.087Z,102697.41
2023-01-17T22:44:00.400Z,102700.75
2023-01-17T22:49:08.509Z,102670.03
2023-01-17T22:54:14.039Z,102682.28
2023-01-17T22:59:18.233Z,102698.91
2023-01-17T23:04:23.664Z,102697.88
2023-01-17T23:09:29.569Z,102706.66
2023-01-17T23:14:57.171Z,102712.75
2023-01-17T23:20:02.912Z,102686.00
2023-01-17T23:25:11.952Z,102707.25
2023-01-17T23:30:30.800Z,102700.91
2023-01-17T23:35:42.085Z,102726.22
2023-01-17T23:41:09.768Z,102721.00
2023-01-17T23:46:15.107Z,102716.75
2023-01-17T23:51:20.295Z,102712.25
2023-01-17T23:56:25.638Z,102694.28
